createdAt,value
2023-04-10T00:02:00.637Z,14.65
2023-04-10T00:04:28.356Z,13.32
2023-04-10T00:06:55.473Z,13.57
2023-04-10T00:09:21.959Z,13.85
2023-04-10T00:11:48.642Z,14.90
2023-04-10T00:14:15.363Z,11.77
2023-04-10T00:16:41.870Z,12.43
2023-04-10T00:19:08.636Z,13.55
2023-04-10T00:21:35.054Z,11.38
2023-04-10T00:24:01.478Z,12.80
2023-04-10T00:26:27.921Z,11.82
2023-04-10T00:28:54.299Z,13.95
2023-04-10T00:31:20.852Z,10.95
2023-04-10T00:33:47.292Z,11.90
2023-04-10T00:36:13.795Z,12.15
2023-04-10T00:38:40.344Z,11.52
2023-04-10T00:41:07.158Z,11.50
2023-04-10T00:43:33.574Z,11.18
2023-04-10T00:46:00.337Z,13.55
2023-04-10T00:48:26.802Z,11.90
2023-04-10T00:50:53.231Z,12.07
2023-04-10T00:53:19.913Z,12.52
2023-04-10T00:55:46.900Z,12.48
2023-04-10T00:58:14.465Z,12.52
2023-04-10T01:00:41.461Z,9.52
2023-04-10T01:03:13.266Z,11.88
2023-04-10T01:05:52.282Z,11.68
2023-04-10T01:08:36.449Z,11.27
2023-04-10T01:11:12.903Z,10.88
2023-04-10T01:14:03.974Z,11.43
2023-04-10T01:16:46.519Z,12.07
2023-04-10T01:19:32.538Z,11.18
2023-04-10T01:22:02.052Z,12.57
2023-04-10T01:24:40.411Z,11.95
2023-04-10T01:27:29.116Z,10.38
2023-04-10T01:29:57.575Z,10.35
2023-04-10T01:32:24.614Z,11.90
2023-04-10T01:34:54.417Z,9.93
2023-04-10T01:37:27.419Z,12.43
2023-04-10T01:40:03.988Z,11.95
2023-04-10T01:42:38.985Z,11.15
2023-04-10T01:45:09.055Z,11.43
2023-04-10T01:47:36.380Z,12.18
2023-04-10T01:50:04.200Z,11.27
2023-04-10T01:52:31.682Z,11.50
2023-04-10T01:54:58.565Z,10.48
2023-04-10T01:57:25.242Z,11.15
2023-04-10T01:59:51.646Z,11.70
2023-04-10T02:02:18.209Z,10.95
2023-04-10T02:04:47.002Z,12.45
2023-04-10T02:07:27.333Z,12.18
2023-04-10T02:10:02.410Z,11.05
2023-04-10T02:12:31.400Z,12.95
2023-04-10T02:15:01.846Z,11.48
2023-04-10T02:17:31.516Z,11.70
2023-04-10T02:19:59.721Z,10.95
2023-04-10T02:24:53.929Z,15.00
2023-04-10T02:27:28.033Z,13.23
2023-04-10T02:29:54.510Z,15.35
2023-04-10T02:32:21.161Z,13.88
2023-04-10T02:34:47.598Z,13.90
2023-04-10T02:37:14.077Z,17.63
2023-04-10T02:39:40.750Z,15.20
2023-04-10T02:42:07.215Z,13.57
2023-04-10T02:44:33.766Z,15.15
2023-04-10T02:47:00.330Z,14.82
2023-04-10T02:49:27.264Z,15.18
2023-04-10T02:51:53.708Z,13.88
2023-04-10T02:54:20.400Z,13.35
2023-04-10T02:56:47.248Z,13.02
2023-04-10T02:59:13.689Z,17.30
2023-04-10T03:01:40.964Z,14.32
2023-04-10T03:04:07.898Z,16.33
2023-04-10T03:06:34.432Z,17.00
2023-04-10T03:09:01.128Z,18.25
2023-04-10T03:11:27.522Z,18.40
2023-04-10T03:13:54.153Z,17.48
2023-04-10T03:16:20.942Z,16.55
2023-04-10T03:18:47.391Z,17.98
2023-04-10T03:21:13.816Z,16.05
2023-04-10T03:23:40.362Z,14.77
2023-04-10T03:26:06.983Z,16.42
2023-04-10T03:28:36.479Z,16.58
2023-04-10T03:31:04.328Z,13.63
2023-04-10T03:33:30.980Z,15.13
2023-04-10T03:35:58.070Z,17.13
2023-04-10T03:38:24.652Z,17.70
2023-04-10T03:40:51.155Z,16.88
2023-04-10T03:43:17.612Z,20.88
2023-04-10T03:45:44.056Z,19.50
2023-04-10T03:48:10.534Z,18.35
2023-04-10T03:50:37.084Z,19.27
2023-04-10T03:53:03.449Z,20.48
2023-04-10T03:55:29.923Z,16.10
2023-04-10T03:57:56.300Z,17.88
2023-04-10T04:00:24.555Z,16.83
2023-04-10T04:05:18.677Z,17.23
2023-04-10T04:07:45.374Z,17.05
2023-04-10T04:10:12.241Z,19.63
2023-04-10T04:12:38.607Z,16.80
2023-04-10T04:15:05.333Z,15.73
2023-04-10T04:17:31.854Z,17.52
2023-04-10T04:19:58.292Z,18.80
2023-04-10T04:22:24.812Z,17.55
2023-04-10T04:24:52.503Z,16.27
2023-04-10T04:27:21.779Z,16.88
2023-04-10T04:29:48.324Z,17.45
2023-04-10T04:32:15.142Z,17.92
2023-04-10T04:34:41.709Z,15.38
2023-04-10T04:37:08.116Z,20.30
2023-04-10T04:39:34.470Z,21.00
2023-04-10T04:42:01.397Z,19.58
2023-04-10T04:44:27.756Z,15.85
2023-04-10T04:46:54.097Z,16.85
2023-04-10T04:49:20.449Z,18.42
2023-04-10T04:51:46.878Z,16.88
2023-04-10T04:54:13.236Z,19.33
2023-04-10T04:56:39.692Z,20.02
2023-04-10T04:59:06.072Z,18.63
2023-04-10T05:01:32.850Z,20.13
2023-04-10T05:03:59.369Z,18.17
2023-04-10T05:06:26.429Z,18.13
2023-04-10T05:08:53.194Z,19.35
2023-04-10T05:11:19.917Z,18.40
2023-04-10T05:13:46.386Z,17.85
2023-04-10T05:16:12.876Z,15.32
2023-04-10T05:18:39.406Z,16.45
2023-04-10T05:21:06.093Z,19.67
2023-04-10T05:23:32.518Z,18.92
2023-04-10T05:25:58.965Z,17.45
2023-04-10T05:28:25.426Z,15.77
2023-04-10T05:30:52.082Z,16.35
2023-04-10T05:33:18.474Z,18.77
2023-04-10T05:35:46.333Z,17.60
2023-04-10T05:38:12.893Z,14.10
2023-04-10T05:40:39.338Z,14.85
2023-04-10T05:43:05.957Z,15.50
2023-04-10T05:45:32.430Z,13.50
2023-04-10T05:47:58.886Z,14.45
2023-04-10T05:50:25.333Z,13.50
2023-04-10T05:52:51.776Z,10.95
2023-04-10T05:55:18.336Z,13.85
2023-04-10T05:57:44.776Z,12.43
2023-04-10T06:00:11.949Z,13.07
2023-04-10T06:02:39.146Z,14.75
2023-04-10T06:05:06.460Z,15.38
2023-04-10T06:07:33.243Z,14.45
2023-04-10T06:09:59.647Z,14.32
2023-04-10T06:12:26.010Z,21.45
2023-04-10T06:14:52.387Z,15.15
2023-04-10T06:17:21.150Z,13.52
2023-04-10T06:19:47.882Z,17.52
2023-04-10T06:22:14.229Z,15.65
2023-04-10T06:24:40.634Z,16.58
2023-04-10T06:27:07.172Z,15.68
2023-04-10T06:29:33.537Z,15.15
2023-04-10T06:32:00.509Z,15.52
2023-04-10T06:34:27.388Z,13.23
2023-04-10T06:36:53.990Z,14.80
2023-04-10T06:39:20.359Z,14.70
2023-04-10T06:41:46.826Z,16.23
2023-04-10T06:44:13.288Z,13.20
2023-04-10T06:46:39.666Z,12.55
2023-04-10T06:49:06.236Z,15.23
2023-04-10T06:51:32.761Z,14.85
2023-04-10T06:53:59.179Z,13.70
2023-04-10T06:56:25.926Z,15.00
2023-04-10T06:58:52.464Z,15.77
2023-04-10T07:01:19.142Z,13.13
2023-04-10T07:03:45.906Z,13.13
2023-04-10T07:06:12.707Z,13.82
2023-04-10T07:08:39.175Z,13.45
2023-04-10T07:11:05.940Z,14.02
2023-04-10T07:13:32.351Z,14.73
2023-04-10T07:15:58.764Z,14.77
2023-04-10T07:18:25.215Z,11.95
2023-04-10T07:20:51.850Z,12.48
2023-04-10T07:23:19.598Z,11.40
2023-04-10T07:25:46.512Z,11.02
2023-04-10T07:28:12.888Z,9.25
2023-04-10T07:30:39.264Z,9.35
2023-04-10T07:33:06.181Z,9.98
2023-04-10T07:37:59.070Z,8.45
2023-04-10T07:40:25.581Z,9.27
2023-04-10T07:42:53.905Z,8.88
2023-04-10T07:45:20.529Z,9.25
2023-04-10T07:47:46.962Z,8.80
2023-04-10T07:50:13.394Z,8.30
2023-04-10T07:52:39.780Z,8.18
2023-04-10T07:55:06.594Z,8.10
2023-04-10T07:57:33.281Z,7.28
2023-04-10T07:59:59.803Z,8.07
2023-04-10T08:02:26.529Z,8.20
2023-04-10T08:07:21.256Z,7.72
2023-04-10T08:09:47.686Z,7.85
2023-04-10T08:12:14.132Z,7.45
2023-04-10T08:14:40.864Z,11.98
2023-04-10T08:17:07.384Z,6.50
2023-04-10T08:19:33.741Z,7.93
2023-04-10T08:22:00.209Z,7.22
2023-04-10T08:24:26.614Z,6.90
2023-04-10T08:26:53.252Z,6.90
2023-04-10T08:29:19.687Z,6.53
2023-04-10T08:31:46.123Z,6.35
2023-04-10T08:34:12.529Z,6.25
2023-04-10T08:36:39.309Z,5.97
2023-04-10T08:41:32.203Z,6.13
2023-04-10T08:43:58.700Z,6.18
2023-04-10T08:46:28.143Z,4.93
2023-04-10T08:49:02.550Z,5.80
2023-04-10T08:51:43.914Z,6.07
2023-04-10T08:54:19.952Z,5.43
2023-04-10T08:56:51.256Z,5.70
2023-04-10T08:59:18.284Z,5.28
2023-04-10T09:01:46.793Z,5.97
2023-04-10T09:04:14.132Z,6.32
2023-04-10T09:06:40.633Z,4.65
2023-04-10T09:09:07.120Z,5.47
2023-04-10T09:11:51.688Z,4.53
2023-04-10T09:14:29.681Z,4.38
2023-04-10T09:17:13.811Z,4.63
2023-04-10T09:19:40.965Z,4.50
2023-04-10T09:22:07.472Z,4.45
2023-04-10T09:24:42.872Z,4.68
2023-04-10T09:27:10.027Z,5.03
2023-04-10T09:29:45.008Z,3.92
2023-04-10T09:32:12.519Z,6.00
2023-04-10T09:34:53.806Z,4.35
2023-04-10T09:37:22.588Z,3.97
2023-04-10T09:39:49.038Z,4.50
2023-04-10T09:42:15.556Z,4.80
2023-04-10T09:44:42.800Z,3.33
2023-04-10T09:47:21.700Z,5.65
2023-04-10T09:49:55.918Z,3.35
2023-04-10T09:52:26.212Z,3.42
2023-04-10T09:54:59.458Z,4.13
2023-04-10T09:57:27.617Z,3.53
2023-04-10T09:59:56.308Z,3.92
2023-04-10T10:02:25.704Z,6.00
2023-04-10T10:04:52.953Z,3.88
2023-04-10T10:07:21.223Z,2.28
2023-04-10T10:09:49.589Z,3.88
2023-04-10T10:12:19.157Z,3.33
2023-04-10T10:14:57.668Z,3.05
2023-04-10T10:17:28.626Z,2.88
2023-04-10T10:20:04.687Z,2.83
2023-04-10T10:22:32.352Z,2.83
2023-04-10T10:25:00.618Z,2.20
2023-04-10T10:27:30.742Z,2.30
2023-04-10T10:30:02.950Z,2.38
2023-04-10T10:32:32.244Z,2.65
2023-04-10T10:35:01.294Z,2.42
2023-04-10T10:37:29.677Z,3.40
2023-04-10T10:40:14.836Z,2.90
2023-04-10T10:43:13.545Z,2.63
2023-04-10T10:45:52.471Z,1.48
2023-04-10T10:48:18.978Z,2.05
2023-04-10T10:50:53.810Z,2.45
2023-04-10T10:53:41.169Z,2.25
2023-04-10T10:56:19.839Z,2.28
2023-04-10T10:58:48.099Z,1.60
2023-04-10T11:01:15.691Z,2.58
2023-04-10T11:03:44.433Z,1.10
2023-04-10T11:06:13.048Z,3.25
2023-04-10T11:08:45.885Z,2.58
2023-04-10T11:11:15.751Z,1.75
2023-04-10T11:13:57.380Z,1.95
2023-04-10T11:16:43.827Z,3.03
2023-04-10T11:19:16.408Z,2.45
2023-04-10T11:22:07.983Z,1.60
2023-04-10T11:25:00.615Z,2.83
2023-04-10T11:27:40.481Z,1.80
2023-04-10T11:30:33.045Z,1.83
2023-04-10T11:33:02.044Z,1.58
2023-04-10T11:35:29.038Z,1.70
2023-04-10T11:38:12.080Z,2.00
2023-04-10T11:40:55.046Z,1.80
2023-04-10T11:43:22.062Z,1.45
2023-04-10T11:45:49.225Z,1.67
2023-04-10T11:48:17.370Z,1.88
2023-04-10T11:50:43.875Z,2.15
2023-04-10T11:53:20.324Z,2.30
2023-04-10T11:55:47.197Z,2.00
2023-04-10T11:58:23.538Z,1.52
2023-04-10T12:01:05.486Z,1.00
2023-04-10T12:03:37.216Z,1.80
2023-04-10T12:06:07.190Z,2.05
2023-04-10T12:08:34.877Z,1.08
2023-04-10T12:11:01.742Z,1.40
2023-04-10T12:13:29.840Z,1.38
2023-04-10T12:16:06.610Z,1.02
2023-04-10T12:18:33.824Z,1.33
2023-04-10T12:23:29.452Z,1.65
2023-04-10T12:26:10.227Z,1.70
2023-04-10T12:28:37.928Z,1.65
2023-04-10T12:31:05.043Z,1.58
2023-04-10T12:35:59.186Z,2.45
2023-04-10T12:38:43.126Z,1.90
2023-04-10T12:41:11.318Z,1.52
2023-04-10T12:43:39.793Z,1.80
2023-04-10T12:46:07.744Z,2.30
2023-04-10T12:48:34.375Z,1.55
2023-04-10T12:51:01.317Z,1.35
2023-04-10T12:53:28.137Z,1.58
2023-04-10T12:56:03.579Z,2.13
2023-04-10T12:58:33.492Z,3.08
2023-04-10T13:01:07.896Z,2.30
2023-04-10T13:03:36.303Z,1.65
2023-04-10T13:06:06.285Z,2.20
2023-04-10T13:08:32.987Z,1.85
2023-04-10T13:11:06.887Z,2.17
2023-04-10T13:13:33.336Z,2.38
2023-04-10T13:16:01.399Z,1.40
2023-04-10T13:18:27.977Z,2.28
2023-04-10T13:20:54.514Z,1.38
2023-04-10T13:23:20.989Z,1.27
2023-04-10T13:25:47.545Z,1.73
2023-04-10T13:28:15.738Z,1.10
2023-04-10T13:30:42.456Z,1.63
2023-04-10T13:33:09.725Z,1.63
2023-04-10T13:35:36.478Z,1.63
2023-04-10T13:38:03.862Z,1.02
2023-04-10T13:40:30.689Z,1.15
2023-04-10T13:42:57.139Z,1.17
2023-04-10T13:45:23.656Z,1.27
2023-04-10T13:47:50.278Z,1.20
2023-04-10T13:50:16.999Z,1.90
2023-04-10T13:52:43.358Z,1.58
2023-04-10T13:55:10.394Z,1.75
2023-04-10T13:57:37.014Z,1.88
2023-04-10T14:00:04.638Z,1.40
2023-04-10T14:02:31.500Z,2.00
2023-04-10T14:04:58.040Z,1.92
2023-04-10T14:07:24.453Z,2.88
2023-04-10T14:09:51.013Z,2.65
2023-04-10T14:12:19.119Z,1.88
2023-04-10T14:14:46.085Z,1.90
2023-04-10T14:17:12.591Z,1.08
2023-04-10T14:19:39.776Z,2.10
2023-04-10T14:22:06.464Z,2.47
2023-04-10T14:24:33.193Z,1.80
2023-04-10T14:27:01.850Z,1.90
2023-04-10T14:29:36.340Z,1.42
2023-04-10T14:32:06.074Z,1.95
2023-04-10T14:36:59.680Z,1.95
2023-04-10T14:39:26.260Z,1.27
2023-04-10T14:41:52.918Z,1.75
2023-04-10T14:44:19.587Z,1.92
2023-04-10T14:46:46.265Z,1.85
2023-04-10T14:49:13.771Z,3.03
2023-04-10T14:51:43.287Z,2.53
2023-04-10T14:54:09.768Z,2.22
2023-04-10T14:56:36.400Z,2.03
2023-04-10T14:59:02.882Z,2.08
2023-04-10T15:01:29.296Z,1.90
2023-04-10T15:03:56.125Z,1.25
2023-04-10T15:08:49.337Z,2.67
2023-04-10T15:11:15.845Z,1.80
2023-04-10T15:13:42.263Z,3.22
2023-04-10T15:16:08.973Z,1.45
2023-04-10T15:18:35.544Z,1.80
2023-04-10T15:21:01.935Z,3.65
2023-04-10T15:23:28.368Z,3.00
2023-04-10T15:25:55.128Z,1.85
2023-04-10T15:28:21.667Z,1.45
2023-04-10T15:30:49.969Z,1.77
2023-04-10T15:33:17.292Z,1.48
2023-04-10T15:35:48.005Z,1.67
2023-04-10T15:38:14.523Z,1.10
2023-04-10T15:40:40.972Z,1.52
2023-04-10T15:43:07.482Z,1.25
2023-04-10T15:45:36.286Z,1.83
2023-04-10T15:48:04.574Z,1.45
2023-04-10T15:50:31.255Z,0.80
2023-04-10T15:52:57.708Z,1.00
2023-04-10T15:55:24.227Z,1.60
2023-04-10T15:57:50.814Z,1.73
2023-04-10T16:00:17.732Z,1.10
2023-04-10T16:02:44.581Z,1.23
2023-04-10T16:07:39.570Z,1.15
2023-04-10T16:10:06.666Z,1.85
2023-04-10T16:12:33.042Z,2.95
2023-04-10T16:14:59.735Z,1.50
2023-04-10T16:17:26.251Z,1.17
2023-04-10T16:19:52.802Z,1.52
2023-04-10T16:22:19.344Z,1.48
2023-04-10T16:24:45.793Z,1.20
2023-04-10T16:27:12.254Z,1.27
2023-04-10T16:29:38.841Z,1.25
2023-04-10T16:32:05.321Z,2.88
2023-04-10T16:34:31.933Z,1.10
2023-04-10T16:36:58.388Z,1.85
2023-04-10T16:39:24.891Z,2.45
2023-04-10T16:41:51.310Z,1.77
2023-04-10T16:44:17.936Z,2.25
2023-04-10T16:46:44.379Z,2.15
2023-04-10T16:49:11.204Z,2.25
2023-04-10T16:51:37.636Z,1.90
2023-04-10T16:54:04.149Z,2.55
2023-04-10T16:56:33.554Z,2.00
2023-04-10T16:59:00.004Z,2.83
2023-04-10T17:01:27.071Z,2.28
2023-04-10T17:03:54.554Z,2.83
2023-04-10T17:06:21.173Z,2.22
2023-04-10T17:08:48.091Z,2.22
2023-04-10T17:11:14.908Z,2.45
2023-04-10T17:13:42.214Z,3.13
2023-04-10T17:18:35.939Z,3.55
2023-04-10T17:21:02.489Z,2.40
2023-04-10T17:23:29.421Z,6.68
2023-04-10T17:25:55.812Z,4.07
2023-04-10T17:28:22.176Z,2.85
2023-04-10T17:30:48.600Z,1.98
2023-04-10T17:33:15.269Z,2.92
2023-04-10T17:35:42.191Z,5.65
2023-04-10T17:38:08.697Z,3.30
2023-04-10T17:40:35.179Z,4.35
2023-04-10T17:43:01.683Z,2.53
2023-04-10T17:45:28.053Z,3.67
2023-04-10T17:47:54.574Z,3.72
2023-04-10T17:50:21.352Z,3.10
2023-04-10T17:52:47.791Z,4.10
2023-04-10T17:55:18.372Z,2.08
2023-04-10T17:57:47.227Z,3.17
2023-04-10T18:00:20.046Z,2.97
2023-04-10T18:02:48.227Z,4.80
2023-04-10T18:05:15.450Z,5.95
2023-04-10T18:07:42.013Z,2.13
2023-04-10T18:10:11.153Z,3.05
2023-04-10T18:12:38.044Z,2.13
2023-04-10T18:15:05.251Z,3.15
2023-04-10T18:17:31.778Z,3.60
2023-04-10T18:19:58.192Z,2.95
2023-04-10T18:22:24.600Z,4.70
2023-04-10T18:24:51.077Z,2.70
2023-04-10T18:27:17.486Z,3.40
2023-04-10T18:29:45.582Z,3.70
2023-04-10T18:32:12.434Z,3.22
2023-04-10T18:34:39.201Z,3.47
2023-04-10T18:37:06.853Z,3.25
2023-04-10T18:39:38.180Z,2.95
2023-04-10T18:42:08.127Z,3.55
2023-04-10T18:44:34.943Z,3.17
2023-04-10T18:47:04.685Z,3.15
2023-04-10T18:49:34.092Z,3.83
2023-04-10T18:52:00.661Z,2.60
2023-04-10T18:54:27.492Z,3.88
2023-04-10T18:56:54.147Z,5.38
2023-04-10T18:59:20.690Z,4.43
2023-04-10T19:01:47.445Z,4.10
2023-04-10T19:04:14.280Z,2.85
2023-04-10T19:06:42.725Z,2.67
2023-04-10T19:09:09.165Z,3.30
2023-04-10T19:11:35.572Z,5.10
2023-04-10T19:14:02.045Z,4.15
2023-04-10T19:16:28.639Z,3.20
2023-04-10T19:18:55.498Z,3.88
2023-04-10T19:21:22.441Z,5.10
2023-04-10T19:23:49.277Z,15.75
2023-04-10T19:26:16.003Z,12.07
2023-04-10T19:28:42.439Z,8.70
2023-04-10T19:31:09.111Z,9.10
2023-04-10T19:33:35.575Z,5.80
2023-04-10T19:36:02.073Z,5.50
2023-04-10T19:38:29.670Z,6.20
2023-04-10T19:40:56.848Z,8.07
2023-04-10T19:43:23.391Z,5.85
2023-04-10T19:45:50.313Z,6.45
2023-04-10T19:48:16.795Z,11.38
2023-04-10T19:50:43.210Z,6.68
2023-04-10T19:53:12.803Z,7.43
2023-04-10T19:55:40.779Z,5.95
2023-04-10T19:58:13.286Z,8.07
2023-04-10T20:00:47.469Z,12.82
2023-04-10T20:03:15.981Z,14.45
2023-04-10T20:05:42.714Z,16.38
2023-04-10T20:08:09.194Z,14.45
2023-04-10T20:10:35.603Z,8.50
2023-04-10T20:13:02.245Z,6.45
2023-04-10T20:15:28.681Z,6.18
2023-04-10T20:17:55.114Z,5.43
2023-04-10T20:20:21.857Z,6.32
2023-04-10T20:22:48.312Z,5.40
2023-04-10T20:25:14.864Z,5.38
2023-04-10T20:27:41.246Z,5.20
2023-04-10T20:30:08.180Z,5.93
2023-04-10T20:32:34.748Z,5.95
2023-04-10T20:35:01.318Z,5.53
2023-04-10T20:37:27.894Z,6.57
2023-04-10T20:39:54.342Z,6.18
2023-04-10T20:42:20.770Z,5.55
2023-04-10T20:44:47.205Z,5.45
2023-04-10T20:47:13.770Z,5.97
2023-04-10T20:49:40.381Z,5.43
2023-04-10T20:52:07.258Z,5.15
2023-04-10T20:54:33.752Z,6.05
2023-04-10T20:57:01.882Z,7.85
2023-04-10T20:59:29.336Z,5.43
2023-04-10T21:01:56.164Z,6.50
2023-04-10T21:04:22.684Z,4.53
2023-04-10T21:06:49.102Z,4.45
2023-04-10T21:09:15.795Z,5.10
2023-04-10T21:11:42.171Z,7.93
2023-04-10T21:14:08.604Z,5.10
2023-04-10T21:16:37.441Z,5.03
2023-04-10T21:19:03.948Z,7.30
2023-04-10T21:21:31.130Z,6.15
2023-04-10T21:23:57.491Z,7.00
2023-04-10T21:26:23.914Z,4.97
2023-04-10T21:28:50.303Z,4.57
2023-04-10T21:31:16.729Z,4.65
2023-04-10T21:33:44.018Z,4.90
2023-04-10T21:36:10.942Z,4.30
2023-04-10T21:38:37.561Z,4.63
2023-04-10T21:41:05.803Z,4.40
2023-04-10T21:43:32.223Z,5.78
2023-04-10T21:46:00.354Z,4.68
2023-04-10T21:48:28.122Z,3.72
2023-04-10T21:50:54.478Z,6.72
2023-04-10T21:53:20.925Z,4.10
2023-04-10T21:55:47.351Z,5.95
2023-04-10T21:58:13.817Z,4.80
2023-04-10T22:00:41.467Z,5.07
2023-04-10T22:03:09.762Z,5.82
2023-04-10T22:05:36.421Z,5.07
2023-04-10T22:08:03.101Z,4.05
2023-04-10T22:10:29.648Z,6.07
2023-04-10T22:12:56.314Z,4.28
2023-04-10T22:15:22.717Z,3.78
2023-04-10T22:17:49.426Z,3.58
2023-04-10T22:20:16.227Z,4.38
2023-04-10T22:22:42.645Z,3.90
2023-04-10T22:25:09.295Z,3.88
2023-04-10T22:27:35.653Z,4.00
2023-04-10T22:30:03.903Z,3.70
2023-04-10T22:32:31.543Z,3.95
2023-04-10T22:35:01.134Z,2.70
2023-04-10T22:37:27.855Z,4.13
2023-04-10T22:39:56.098Z,4.05
2023-04-10T22:42:22.744Z,4.05
2023-04-10T22:44:49.253Z,3.28
2023-04-10T22:47:15.717Z,3.88
2023-04-10T22:49:42.377Z,6.40
2023-04-10T22:52:08.835Z,5.07
2023-04-10T22:54:35.376Z,2.53
2023-04-10T22:57:01.929Z,3.90
2023-04-10T22:59:28.341Z,3.78
2023-04-10T23:01:54.827Z,4.35
2023-04-10T23:04:21.434Z,4.70
2023-04-10T23:06:48.193Z,7.00
2023-04-10T23:09:14.677Z,4.30
2023-04-10T23:11:41.103Z,3.60
2023-04-10T23:14:07.628Z,4.47
2023-04-10T23:16:34.300Z,3.72
2023-04-10T23:19:00.712Z,3.58
2023-04-10T23:21:27.639Z,4.55
2023-04-10T23:23:54.089Z,5.60
2023-04-10T23:26:20.872Z,4.10
2023-04-10T23:28:47.702Z,3.65
2023-04-10T23:31:14.386Z,3.67
2023-04-10T23:33:40.757Z,7.85
2023-04-10T23:36:07.591Z,3.28
2023-04-10T23:38:34.018Z,4.40
2023-04-10T23:41:00.376Z,3.05
2023-04-10T23:43:26.762Z,2.85
2023-04-10T23:45:53.149Z,2.88
2023-04-10T23:48:19.658Z,3.78
2023-04-10T23:50:46.033Z,4.15
2023-04-10T23:53:14.465Z,4.18
2023-04-10T23:55:41.934Z,4.72
2023-04-10T23:58:08.541Z,4.43
